Time;durP1;ratioP1;P1;durP2;ratioP2;P2;SDS_P1;SDS_P2;PMS_P1;PMS_P2;Temp;Humidity;BMP_temperature;BMP_pressure;BME280_temperature;BME280_humidity;BME280_pressure;Samples;Min_cycle;Max_cycle;Signal;HPM_P1;HPM_P2
2021/08/19 00:02:12;;;;;;;5.15;2.78;;;17.40;94.50;;;;;;5076586;28;20028;-70
2021/08/19 00:04:38;;;;;;;5.50;3.00;;;17.40;94.80;;;;;;5076783;28;20077;-68
2021/08/19 00:07:04;;;;;;;4.82;2.75;;;17.30;94.50;;;;;;5076672;28;20492;-69
2021/08/19 00:09:30;;;;;;;5.93;3.10;;;17.30;94.50;;;;;;5076670;28;20021;-69
2021/08/19 00:11:55;;;;;;;6.13;2.65;;;17.30;94.50;;;;;;5076365;28;20024;-69
2021/08/19 00:14:21;;;;;;;5.00;2.30;;;17.30;94.50;;;;;;5076011;28;20025;-69
2021/08/19 00:16:46;;;;;;;6.60;3.40;;;17.30;94.50;;;;;;5076450;28;20021;-69
2021/08/19 00:19:12;;;;;;;5.20;3.30;;;17.30;94.40;;;;;;5075201;28;20017;-69
2021/08/19 00:21:37;;;;;;;4.90;2.63;;;17.30;94.40;;;;;;5076161;28;20028;-69
2021/08/19 00:24:03;;;;;;;3.03;2.13;;;17.30;94.40;;;;;;5076377;28;20111;-69
2021/08/19 00:26:29;;;;;;;5.47;2.67;;;17.30;94.40;;;;;;5076154;28;20024;-69
2021/08/19 00:28:54;;;;;;;4.53;2.72;;;17.30;94.50;;;;;;5075718;28;20031;-69
2021/08/19 00:31:22;;;;;;;4.95;2.83;;;17.30;94.50;;;;;;5076072;28;20016;-69
2021/08/19 00:33:49;;;;;;;4.15;2.60;;;17.30;94.50;;;;;;5074944;28;20120;-69
2021/08/19 00:36:14;;;;;;;3.75;2.33;;;17.30;94.50;;;;;;5076137;28;20027;-69
2021/08/19 00:38:40;;;;;;;5.47;3.13;;;17.40;94.50;;;;;;5075897;28;20013;-69
2021/08/19 00:41:05;;;;;;;5.15;2.85;;;17.30;94.40;;;;;;5074653;28;20477;-70
2021/08/19 00:43:34;;;;;;;6.57;3.72;;;17.40;94.40;;;;;;5075463;28;20056;-70
2021/08/19 00:46:02;;;;;;;7.00;3.47;;;17.40;94.50;;;;;;5075976;28;20059;-69
2021/08/19 00:48:28;;;;;;;6.13;3.15;;;17.40;94.50;;;;;;5075808;28;20035;-70
2021/08/19 00:50:55;;;;;;;4.68;3.03;;;17.30;94.50;;;;;;5076023;28;20021;-69
2021/08/19 00:53:20;;;;;;;5.50;3.00;;;17.30;94.50;;;;;;5075836;28;20025;-69
2021/08/19 00:55:49;;;;;;;5.53;2.95;;;17.40;94.50;;;;;;5075197;28;20032;-69
2021/08/19 00:58:14;;;;;;;4.43;2.72;;;17.30;94.40;;;;;;5075266;28;20052;-69
2021/08/19 01:00:42;;;;;;;4.82;2.47;;;17.30;94.40;;;;;;5075441;28;20543;-69
2021/08/19 01:03:08;;;;;;;4.32;2.05;;;17.40;94.40;;;;;;5075520;28;20055;-68
2021/08/19 01:05:37;;;;;;;4.55;2.38;;;17.40;94.40;;;;;;5074327;28;20074;-69
2021/08/19 01:08:04;;;;;;;4.50;2.47;;;17.40;94.40;;;;;;5075440;28;20086;-69
2021/08/19 01:10:30;;;;;;;4.78;3.05;;;17.40;94.30;;;;;;5074316;28;20012;-68
2021/08/19 01:12:56;;;;;;;5.13;2.38;;;17.40;94.30;;;;;;5074892;28;20385;-67
2021/08/19 01:15:22;;;;;;;5.18;2.75;;;17.40;94.30;;;;;;5074058;28;20009;-68
2021/08/19 01:18:03;;;;;;;5.07;2.75;;;17.40;94.30;;;;;;5075406;28;20025;-68
2021/08/19 01:20:30;;;;;;;5.13;2.65;;;17.50;94.30;;;;;;5074063;28;20032;-69
2021/08/19 01:22:57;;;;;;;4.55;2.33;;;17.40;94.30;;;;;;5074903;28;20076;-68
2021/08/19 01:25:24;;;;;;;3.55;2.10;;;17.40;94.30;;;;;;5075217;28;20027;-68
2021/08/19 01:27:52;;;;;;;4.30;2.70;;;17.40;94.30;;;;;;5074714;28;20103;-69
2021/08/19 01:30:19;;;;;;;3.40;2.00;;;17.50;94.30;;;;;;5073935;28;20062;-69
2021/08/19 01:32:45;;;;;;;3.08;1.83;;;17.40;94.40;;;;;;5075035;28;20024;-68
2021/08/19 01:35:10;;;;;;;3.35;2.13;;;17.40;94.30;;;;;;5074841;28;20031;-70
2021/08/19 01:37:36;;;;;;;4.55;2.38;;;17.40;94.30;;;;;;5074958;28;20144;-69
2021/08/19 01:40:02;;;;;;;5.53;3.05;;;17.30;94.20;;;;;;5075132;28;20025;-69
2021/08/19 01:42:28;;;;;;;5.57;2.72;;;17.30;94.30;;;;;;5074331;28;20054;-69
2021/08/19 01:44:54;;;;;;;4.60;2.60;;;17.30;94.30;;;;;;5074767;28;20465;-68
2021/08/19 01:47:22;;;;;;;4.80;2.30;;;17.30;94.30;;;;;;5074645;28;20032;-68
2021/08/19 01:49:47;;;;;;;4.50;2.20;;;17.30;94.30;;;;;;5073464;28;20024;-68
2021/08/19 01:52:13;;;;;;;3.47;2.10;;;17.30;94.30;;;;;;5074662;28;20128;-68
2021/08/19 01:54:38;;;;;;;3.83;2.58;;;17.30;94.30;;;;;;5074554;28;20481;-69
2021/08/19 01:57:04;;;;;;;5.47;2.47;;;17.30;94.30;;;;;;5073986;28;20024;-69
2021/08/19 01:59:30;;;;;;;4.28;1.88;;;17.30;94.30;;;;;;5074632;28;20017;-68
2021/08/19 02:01:56;;;;;;;3.00;2.10;;;17.30;94.30;;;;;;5074430;28;20028;-69
2021/08/19 02:04:22;;;;;;;3.03;1.90;;;17.40;94.30;;;;;;5074265;28;20145;-69
2021/08/19 02:06:47;;;;;;;3.92;2.40;;;17.40;94.30;;;;;;5073584;28;20043;-69
2021/08/19 02:09:13;;;;;;;5.15;2.75;;;17.40;94.20;;;;;;5074269;28;20081;-70
2021/08/19 02:11:39;;;;;;;4.57;2.78;;;17.40;94.20;;;;;;5073816;28;20088;-70
2021/08/19 02:14:06;;;;;;;4.35;2.10;;;17.40;94.20;;;;;;5072948;28;20028;-70
2021/08/19 02:16:32;;;;;;;5.85;2.28;;;17.50;94.20;;;;;;5074098;28;20122;-70
2021/08/19 02:18:57;;;;;;;4.03;2.78;;;17.50;94.20;;;;;;5073971;28;20020;-70
2021/08/19 02:21:23;;;;;;;4.95;2.30;;;17.50;94.20;;;;;;5074067;28;20078;-69
2021/08/19 02:23:48;;;;;;;3.38;1.67;;;17.50;94.20;;;;;;5073823;28;20052;-69
2021/08/19 02:26:14;;;;;;;4.70;2.13;;;17.50;94.20;;;;;;5073957;28;20024;-69
2021/08/19 02:28:39;;;;;;;3.78;2.00;;;17.50;94.20;;;;;;5072620;28;20052;-69
2021/08/19 02:31:05;;;;;;;4.25;2.45;;;17.50;94.20;;;;;;5073810;28;20495;-68
2021/08/19 02:33:30;;;;;;;4.43;2.88;;;17.50;94.20;;;;;;5073779;28;20060;-68
2021/08/19 02:35:56;;;;;;;3.47;2.70;;;17.50;94.20;;;;;;5073863;28;20107;-68
2021/08/19 02:38:22;;;;;;;5.70;3.03;;;17.50;94.20;;;;;;5073296;28;20095;-69
2021/08/19 02:40:47;;;;;;;3.72;2.05;;;17.60;94.20;;;;;;5073652;28;20021;-70
2021/08/19 02:43:13;;;;;;;4.30;2.75;;;17.60;94.20;;;;;;5073654;28;20043;-69
2021/08/19 02:45:39;;;;;;;4.63;2.60;;;17.60;94.20;;;;;;5073756;28;20051;-69
2021/08/19 02:48:05;;;;;;;4.70;2.17;;;17.60;94.20;;;;;;5073695;28;20085;-69
2021/08/19 02:50:31;;;;;;;5.07;3.00;;;17.70;94.20;;;;;;5072188;28;20108;-70
2021/08/19 02:52:57;;;;;;;5.47;2.60;;;17.70;94.30;;;;;;5073183;28;20419;-69
2021/08/19 02:55:23;;;;;;;4.70;3.15;;;17.70;94.30;;;;;;5072223;28;20020;-69
2021/08/19 02:57:48;;;;;;;6.15;3.28;;;17.70;94.30;;;;;;5072209;28;20035;-69
2021/08/19 03:00:14;;;;;;;6.68;2.95;;;17.80;94.30;;;;;;5073392;28;20028;-69
2021/08/19 03:02:40;;;;;;;6.43;4.28;;;17.80;94.30;;;;;;5073310;28;20024;-69
2021/08/19 03:05:07;;;;;;;5.80;2.97;;;17.80;94.30;;;;;;5073390;28;20031;-69
2021/08/19 03:07:32;;;;;;;7.05;3.97;;;17.90;94.40;;;;;;5072931;28;20025;-69
2021/08/19 03:09:58;;;;;;;5.82;3.25;;;17.90;94.30;;;;;;5073234;28;20158;-68
2021/08/19 03:12:24;;;;;;;6.40;3.22;;;17.90;94.60;;;;;;5073339;28;20540;-69
2021/08/19 03:14:49;;;;;;;6.60;3.92;;;18.00;94.30;;;;;;5073403;28;20061;-69
2021/08/19 03:17:15;;;;;;;6.47;4.20;;;18.00;94.30;;;;;;5072958;28;20020;-69
2021/08/19 03:19:40;;;;;;;7.35;4.00;;;18.00;94.30;;;;;;5073164;28;20468;-69
2021/08/19 03:22:07;;;;;;;7.43;4.03;;;18.00;94.30;;;;;;5071179;28;20374;-70
2021/08/19 03:24:35;;;;;;;7.00;4.13;;;18.00;94.30;;;;;;5073231;28;20528;-69
2021/08/19 03:27:00;;;;;;;6.32;3.30;;;18.10;94.40;;;;;;5071914;28;20021;-69
2021/08/19 03:29:26;;;;;;;7.68;3.67;;;18.10;94.40;;;;;;5073107;28;20115;-69
2021/08/19 03:31:51;;;;;;;6.78;4.00;;;18.10;94.40;;;;;;5073174;28;20055;-69
2021/08/19 03:34:17;;;;;;;6.85;3.38;;;18.10;94.40;;;;;;5073183;28;20029;-69
2021/08/19 03:36:42;;;;;;;6.63;4.10;;;18.10;94.40;;;;;;5072605;28;20065;-70
2021/08/19 03:39:08;;;;;;;6.40;4.20;;;18.10;94.50;;;;;;5072951;28;20035;-69
2021/08/19 03:41:34;;;;;;;6.80;3.72;;;18.00;94.50;;;;;;5071846;28;20027;-70
2021/08/19 03:44:00;;;;;;;6.82;3.55;;;18.00;94.50;;;;;;5073112;28;20033;-69
2021/08/19 03:46:25;;;;;;;8.45;4.30;;;18.00;94.50;;;;;;5072983;28;20069;-70
2021/08/19 03:48:51;;;;;;;6.63;3.47;;;18.00;94.50;;;;;;5073020;28;20116;-70
2021/08/19 03:51:17;;;;;;;6.78;3.97;;;18.00;94.50;;;;;;5072406;28;20016;-70
2021/08/19 03:53:42;;;;;;;5.68;3.20;;;18.00;94.50;;;;;;5072903;28;20104;-70
2021/08/19 03:56:08;;;;;;;6.35;3.65;;;18.00;94.50;;;;;;5072945;28;20019;-70
2021/08/19 03:58:35;;;;;;;7.38;3.67;;;18.00;94.50;;;;;;5072855;28;20071;-69
2021/08/19 04:01:01;;;;;;;8.57;3.58;;;18.00;94.50;;;;;;5072787;28;20024;-68
2021/08/19 04:03:27;;;;;;;3.63;2.22;;;18.00;94.50;;;;;;5071282;28;20447;-69
2021/08/19 04:05:55;;;;;;;4.22;2.85;;;18.00;94.50;;;;;;5072440;28;20025;-68
2021/08/19 04:08:21;;;;;;;5.13;2.58;;;18.00;94.40;;;;;;5072843;28;20112;-69
2021/08/19 04:10:46;;;;;;;5.22;3.10;;;18.00;94.40;;;;;;5072869;28;20095;-70
2021/08/19 04:13:13;;;;;;;6.25;3.00;;;18.00;94.40;;;;;;5072764;28;20077;-69
2021/08/19 04:15:39;;;;;;;6.47;3.00;;;17.90;94.40;;;;;;5072525;28;20025;-69
2021/08/19 04:18:04;;;;;;;5.85;3.67;;;17.90;94.50;;;;;;5072911;28;20141;-69
2021/08/19 04:20:30;;;;;;;6.63;3.85;;;17.90;94.50;;;;;;5071044;28;20032;-69
2021/08/19 04:22:56;;;;;;;4.90;2.85;;;17.90;94.50;;;;;;5072411;28;20525;-69
2021/08/19 04:25:21;;;;;;;4.85;2.40;;;17.80;94.50;;;;;;5072586;28;20092;-69
2021/08/19 04:27:47;;;;;;;4.57;2.80;;;17.80;94.50;;;;;;5072600;28;20478;-69
2021/08/19 04:30:12;;;;;;;5.18;3.03;;;17.80;94.50;;;;;;5074300;28;20056;-69
2021/08/19 04:32:38;;;;;;;4.13;2.05;;;17.80;94.50;;;;;;5076195;28;20029;-69
2021/08/19 04:35:05;;;;;;;3.15;1.75;;;17.80;94.40;;;;;;5075811;28;20025;-69
2021/08/19 04:37:31;;;;;;;2.78;1.80;;;17.90;94.40;;;;;;5075946;28;20054;-69
2021/08/19 04:39:56;;;;;;;3.85;3.00;;;17.90;94.30;;;;;;5074766;28;20469;-70
2021/08/19 04:42:24;;;;;;;4.13;2.70;;;17.90;94.30;;;;;;5075938;28;20029;-69
2021/08/19 04:44:50;;;;;;;4.25;2.38;;;17.80;94.30;;;;;;5075918;28;20044;-69
2021/08/19 04:47:16;;;;;;;5.28;2.33;;;17.80;94.30;;;;;;5075833;28;20028;-69
2021/08/19 04:49:41;;;;;;;3.38;2.08;;;17.80;94.40;;;;;;5075334;28;20017;-69
2021/08/19 04:52:07;;;;;;;4.82;2.45;;;17.80;94.40;;;;;;5074589;28;20028;-70
2021/08/19 04:54:33;;;;;;;4.53;2.75;;;17.80;94.60;;;;;;5074549;28;20012;-69
2021/08/19 04:56:58;;;;;;;4.47;2.33;;;17.80;94.40;;;;;;5075634;28;20028;-70
2021/08/19 04:59:24;;;;;;;3.10;1.83;;;17.80;94.40;;;;;;5075569;28;20021;-70
2021/08/19 05:01:49;;;;;;;3.70;2.25;;;17.80;94.30;;;;;;5075570;28;20377;-70
2021/08/19 05:04:15;;;;;;;3.25;2.03;;;17.80;94.30;;;;;;5073907;28;20021;-70
2021/08/19 05:06:40;;;;;;;4.43;2.40;;;17.80;94.30;;;;;;5075608;28;20021;-70
2021/08/19 05:09:06;;;;;;;4.22;2.13;;;17.80;94.30;;;;;;5075593;28;20027;-70
2021/08/19 05:11:33;;;;;;;3.47;2.30;;;17.80;94.30;;;;;;5075417;28;20082;-70
2021/08/19 05:13:59;;;;;;;4.05;1.98;;;17.80;94.30;;;;;;5075383;28;20031;-70
2021/08/19 05:16:26;;;;;;;3.25;1.88;;;17.80;94.30;;;;;;5075431;28;20039;-70
2021/08/19 05:18:52;;;;;;;3.75;2.17;;;17.90;94.30;;;;;;5074884;28;20052;-70
2021/08/19 05:21:17;;;;;;;3.80;2.10;;;17.90;94.30;;;;;;5074092;28;20045;-69
2021/08/19 05:23:43;;;;;;;2.63;1.90;;;17.90;94.30;;;;;;5075069;28;20048;-69
2021/08/19 05:26:09;;;;;;;2.90;1.98;;;17.90;94.30;;;;;;5075077;28;20030;-69
2021/08/19 05:28:34;;;;;;;3.67;2.30;;;17.90;94.30;;;;;;5075168;28;20028;-70
2021/08/19 05:31:00;;;;;;;2.97;1.80;;;17.90;94.30;;;;;;5075200;28;20039;-69
2021/08/19 05:33:26;;;;;;;2.47;1.50;;;17.90;94.30;;;;;;5074424;28;20031;-69
2021/08/19 05:35:51;;;;;;;4.00;2.10;;;17.90;94.30;;;;;;5073844;28;20032;-70
2021/08/19 05:38:17;;;;;;;3.85;2.45;;;17.90;94.30;;;;;;5073764;28;20024;-69
2021/08/19 05:40:43;;;;;;;2.95;1.92;;;17.90;94.30;;;;;;5074921;28;20488;-68
2021/08/19 05:43:09;;;;;;;3.05;2.10;;;18.00;94.30;;;;;;5073400;28;20047;-69
2021/08/19 05:45:35;;;;;;;4.40;2.53;;;18.00;94.20;;;;;;5074708;28;20017;-69
2021/08/19 05:48:01;;;;;;;4.63;2.30;;;18.00;94.20;;;;;;5074252;28;20027;-70
2021/08/19 05:50:31;;;;;;;5.40;3.60;;;18.00;94.20;;;;;;5074684;28;20016;-70
2021/08/19 05:52:56;;;;;;;3.90;2.40;;;18.00;94.20;;;;;;5074642;28;20062;-70
2021/08/19 05:55:22;;;;;;;5.10;2.95;;;18.00;94.30;;;;;;5074447;28;20056;-70
2021/08/19 05:57:47;;;;;;;5.78;3.17;;;18.00;94.30;;;;;;5074517;28;20029;-69
2021/08/19 06:00:14;;;;;;;5.05;3.22;;;18.00;94.30;;;;;;5074530;28;20028;-69
2021/08/19 06:02:40;;;;;;;5.65;3.47;;;18.10;94.30;;;;;;5073911;28;20040;-70
2021/08/19 06:05:06;;;;;;;5.78;3.70;;;18.10;94.30;;;;;;5074365;28;20031;-69
2021/08/19 06:07:32;;;;;;;4.47;2.97;;;18.10;94.30;;;;;;5074389;28;20024;-69
2021/08/19 06:09:57;;;;;;;5.03;3.10;;;18.10;94.30;;;;;;5074299;28;20391;-70
2021/08/19 06:12:23;;;;;;;4.90;2.55;;;18.10;94.20;;;;;;5074264;28;20444;-69
2021/08/19 06:14:51;;;;;;;6.10;2.70;;;18.10;94.30;;;;;;5072941;28;20031;-70
2021/08/19 06:17:17;;;;;;;5.07;3.20;;;18.10;94.30;;;;;;5072638;28;20486;-68
2021/08/19 06:19:42;;;;;;;5.63;2.63;;;18.10;94.30;;;;;;5074211;28;20104;-68
2021/08/19 06:22:08;;;;;;;5.00;2.97;;;18.10;94.30;;;;;;5072553;28;20044;-69
2021/08/19 06:24:33;;;;;;;4.85;2.67;;;18.20;94.30;;;;;;5073975;28;20389;-68
2021/08/19 06:26:59;;;;;;;3.55;2.47;;;18.20;94.30;;;;;;5073904;28;20465;-69
2021/08/19 06:29:24;;;;;;;5.65;2.90;;;18.20;94.30;;;;;;5073932;28;20479;-69
2021/08/19 06:31:50;;;;;;;4.43;2.78;;;18.20;94.30;;;;;;5072221;28;20024;-70
2021/08/19 06:34:15;;;;;;;5.13;2.80;;;18.20;94.30;;;;;;5074068;28;20020;-70
2021/08/19 06:36:41;;;;;;;6.05;3.53;;;18.20;94.30;;;;;;5073642;28;20028;-70
2021/08/19 06:39:06;;;;;;;3.95;2.78;;;18.20;94.30;;;;;;5073797;28;20023;-70
2021/08/19 06:41:32;;;;;;;5.82;3.00;;;18.20;94.30;;;;;;5072489;28;20416;-69
2021/08/19 06:43:58;;;;;;;5.70;3.58;;;18.20;94.30;;;;;;5073563;28;20074;-69
2021/08/19 06:46:23;;;;;;;5.05;2.70;;;18.30;94.30;;;;;;5073138;28;20377;-69
2021/08/19 06:48:49;;;;;;;5.43;3.05;;;18.30;94.30;;;;;;5073779;28;20384;-70
2021/08/19 06:51:14;;;;;;;4.40;2.80;;;18.30;94.30;;;;;;5073414;28;20446;-68
2021/08/19 06:53:40;;;;;;;4.53;2.50;;;18.30;94.30;;;;;;5073101;28;20025;-70
2021/08/19 06:56:05;;;;;;;5.05;2.80;;;18.30;94.30;;;;;;5073389;28;20031;-70
2021/08/19 06:58:31;;;;;;;4.80;2.63;;;18.20;94.30;;;;;;5072168;28;20020;-71
2021/08/19 07:00:56;;;;;;;4.72;2.80;;;18.30;94.30;;;;;;5073194;28;20062;-68
2021/08/19 07:03:23;;;;;;;5.25;3.15;;;18.30;94.30;;;;;;5073443;28;20036;-69
2021/08/19 07:05:49;;;;;;;4.72;2.80;;;18.30;94.30;;;;;;5073354;28;20029;-69
2021/08/19 07:08:15;;;;;;;4.57;2.55;;;18.30;94.30;;;;;;5073386;28;20044;-69
2021/08/19 07:10:43;;;;;;;5.07;2.40;;;18.30;94.30;;;;;;5073163;28;20103;-70
2021/08/19 07:13:08;;;;;;;3.90;2.65;;;18.30;94.30;;;;;;5073353;28;20048;-69
2021/08/19 07:15:34;;;;;;;5.07;2.67;;;18.30;94.30;;;;;;5072671;28;20089;-69
2021/08/19 07:18:00;;;;;;;4.40;2.70;;;18.30;94.30;;;;;;5073329;28;20066;-70
2021/08/19 07:20:25;;;;;;;5.07;2.92;;;18.30;94.30;;;;;;5073171;28;20028;-70
2021/08/19 07:22:51;;;;;;;5.38;3.00;;;18.30;94.30;;;;;;5071638;28;20049;-70
2021/08/19 07:25:17;;;;;;;6.53;3.45;;;18.30;94.30;;;;;;5073140;28;20035;-70
2021/08/19 07:27:43;;;;;;;6.13;2.97;;;18.40;94.30;;;;;;5071869;28;20110;-70
2021/08/19 07:30:10;;;;;;;4.60;2.65;;;18.30;94.20;;;;;;5072851;28;20029;-70
2021/08/19 07:32:36;;;;;;;5.85;2.85;;;18.30;94.30;;;;;;5073077;28;20013;-70
2021/08/19 07:35:03;;;;;;;4.95;3.03;;;18.30;94.30;;;;;;5073061;28;20032;-71
2021/08/19 07:37:29;;;;;;;5.20;3.00;;;18.30;94.30;;;;;;5071755;28;20016;-70
2021/08/19 07:39:54;;;;;;;9.05;3.80;;;18.30;94.30;;;;;;5072979;28;20051;-70
2021/08/19 07:42:20;;;;;;;4.53;3.00;;;18.40;94.30;;;;;;5072964;28;20025;-70
2021/08/19 07:44:45;;;;;;;6.60;3.47;;;18.30;94.30;;;;;;5072569;28;20032;-71
2021/08/19 07:47:11;;;;;;;5.30;3.63;;;18.40;94.30;;;;;;5073123;28;20372;-70
2021/08/19 07:49:36;;;;;;;6.43;3.95;;;18.40;94.30;;;;;;5072911;28;20028;-70
2021/08/19 07:52:02;;;;;;;5.88;3.00;;;18.50;94.30;;;;;;5072909;28;20028;-70
2021/08/19 07:54:28;;;;;;;5.28;3.60;;;18.50;94.30;;;;;;5072903;28;20538;-71
2021/08/19 07:56:53;;;;;;;6.30;4.15;;;18.60;94.30;;;;;;5072802;28;20021;-69
2021/08/19 07:59:19;;;;;;;5.38;3.47;;;18.70;94.50;;;;;;5072439;28;20359;-69
2021/08/19 08:01:44;;;;;;;5.03;3.22;;;18.70;94.30;;;;;;5072883;28;20465;-69
2021/08/19 08:04:11;;;;;;;5.57;3.40;;;18.80;94.20;;;;;;5071536;28;20086;-70
2021/08/19 08:06:37;;;;;;;5.18;3.05;;;18.80;94.20;;;;;;5075409;28;20350;-70
2021/08/19 08:09:03;;;;;;;5.57;3.15;;;18.80;94.40;;;;;;5076619;28;20111;-70
2021/08/19 08:11:29;;;;;;;5.97;3.83;;;18.80;94.10;;;;;;5075261;28;20103;-69
2021/08/19 08:13:54;;;;;;;4.55;3.10;;;18.70;94.20;;;;;;5076051;28;20020;-70
2021/08/19 08:16:20;;;;;;;5.53;3.10;;;18.70;94.20;;;;;;5076555;28;20099;-70
2021/08/19 08:18:45;;;;;;;5.32;2.90;;;18.60;94.20;;;;;;5076502;28;20478;-69
2021/08/19 08:21:13;;;;;;;5.60;3.28;;;18.70;94.30;;;;;;5076310;28;20028;-69
2021/08/19 08:23:40;;;;;;;4.20;2.75;;;18.60;94.30;;;;;;5074843;28;20056;-70
2021/08/19 08:26:06;;;;;;;4.97;3.00;;;18.70;94.30;;;;;;5076331;28;20019;-70
2021/08/19 08:28:31;;;;;;;6.10;3.58;;;18.60;94.30;;;;;;5075845;28;20385;-71
2021/08/19 08:30:59;;;;;;;4.68;3.17;;;18.60;94.60;;;;;;5076230;28;20082;-71
2021/08/19 08:33:26;;;;;;;5.57;3.47;;;18.50;94.30;;;;;;5076248;28;20035;-70
2021/08/19 08:35:52;;;;;;;5.05;2.92;;;18.50;94.30;;;;;;5075967;28;20021;-70
2021/08/19 08:38:21;;;;;;;6.65;3.85;;;18.50;94.40;;;;;;5076051;28;20489;-71
2021/08/19 08:40:49;;;;;;;6.07;3.70;;;18.50;94.50;;;;;;5074744;28;20432;-71
2021/08/19 08:43:17;;;;;;;6.03;4.47;;;18.40;94.50;;;;;;5074631;28;20039;-70
2021/08/19 08:45:46;;;;;;;4.90;2.97;;;18.40;94.50;;;;;;5074592;28;20109;-70
2021/08/19 08:48:22;;;;;;;5.18;2.92;;;18.40;94.50;;;;;;5075919;28;20021;-70
2021/08/19 08:50:49;;;;;;;5.13;2.88;;;18.50;94.50;;;;;;5075991;28;20560;-70
2021/08/19 08:53:16;;;;;;;5.72;3.17;;;18.50;94.50;;;;;;5075866;28;20025;-69
2021/08/19 08:55:42;;;;;;;4.72;2.83;;;18.50;94.40;;;;;;5073950;28;20048;-70
2021/08/19 08:58:09;;;;;;;4.32;2.50;;;18.60;94.40;;;;;;5075693;28;20419;-70
2021/08/19 09:00:36;;;;;;;5.05;2.80;;;18.60;94.40;;;;;;5075783;28;20056;-70
2021/08/19 09:03:01;;;;;;;4.03;2.75;;;18.70;94.40;;;;;;5075537;28;20031;-70
2021/08/19 09:05:29;;;;;;;4.00;3.05;;;18.70;94.40;;;;;;5075606;28;20078;-70
2021/08/19 09:07:56;;;;;;;4.20;2.80;;;18.90;94.30;;;;;;5074315;28;20024;-70
2021/08/19 09:10:24;;;;;;;5.57;3.13;;;18.80;94.20;;;;;;5075101;28;20493;-70
2021/08/19 09:12:52;;;;;;;4.90;3.40;;;18.80;94.20;;;;;;5075465;28;20020;-71
2021/08/19 09:15:19;;;;;;;5.50;3.33;;;18.80;94.20;;;;;;5075200;28;20023;-69
2021/08/19 09:17:51;;;;;;;3.85;2.85;;;18.70;94.30;;;;;;5075264;28;20071;-68
2021/08/19 09:20:21;;;;;;;5.05;3.03;;;18.60;94.40;;;;;;5074076;28;20055;-70
2021/08/19 09:23:06;;;;;;;5.35;3.33;;;18.60;94.40;;;;;;5075051;28;20098;-69
2021/08/19 09:25:32;;;;;;;5.13;3.25;;;18.60;94.40;;;;;;5074809;28;20025;-70
2021/08/19 09:28:11;;;;;;;4.07;3.13;;;18.60;94.40;;;;;;5073906;28;20066;-70
2021/08/19 09:30:38;;;;;;;5.72;3.42;;;18.60;94.40;;;;;;5073992;28;20025;-70
2021/08/19 09:33:05;;;;;;;3.97;2.80;;;18.60;94.40;;;;;;5074970;28;20044;-70
2021/08/19 09:35:32;;;;;;;4.00;2.15;;;18.70;94.40;;;;;;5074958;28;20020;-69
2021/08/19 09:38:04;;;;;;;3.78;2.60;;;18.80;94.30;;;;;;5075221;28;20024;-70
2021/08/19 09:40:30;;;;;;;4.28;2.92;;;18.90;94.30;;;;;;5074489;28;20089;-70
2021/08/19 09:42:56;;;;;;;5.03;3.28;;;18.90;94.20;;;;;;5074721;28;20115;-71
2021/08/19 09:45:23;;;;;;;4.03;2.90;;;19.00;94.10;;;;;;5074884;28;20059;-68
2021/08/19 09:47:50;;;;;;;5.15;3.22;;;19.00;94.10;;;;;;5074921;28;20025;-69
2021/08/19 09:50:16;;;;;;;4.47;3.03;;;19.00;94.20;;;;;;5074816;28;20025;-69
2021/08/19 09:52:43;;;;;;;5.70;3.38;;;19.00;94.20;;;;;;5074653;28;20150;-68
2021/08/19 09:55:27;;;;;;;6.47;4.10;;;18.90;94.10;;;;;;5072684;28;20487;-69
2021/08/19 09:57:55;;;;;;;4.28;2.83;;;18.90;94.10;;;;;;5074709;28;20017;-69
2021/08/19 10:00:24;;;;;;;5.13;3.13;;;18.80;94.20;;;;;;5074562;28;20021;-69
2021/08/19 10:02:49;;;;;;;6.22;3.22;;;18.80;94.30;;;;;;5074582;28;20040;-69
2021/08/19 10:05:16;;;;;;;4.63;2.95;;;18.70;94.30;;;;;;5074249;28;20434;-69
2021/08/19 10:07:42;;;;;;;6.22;4.25;;;18.70;94.30;;;;;;5073030;28;20029;-69
2021/08/19 10:10:08;;;;;;;5.25;4.05;;;18.70;94.30;;;;;;5073951;28;20070;-70
2021/08/19 10:12:34;;;;;;;5.53;3.53;;;18.70;94.30;;;;;;5074172;28;20108;-68
2021/08/19 10:15:00;;;;;;;4.68;2.83;;;18.60;94.30;;;;;;5074419;28;20052;-69
2021/08/19 10:17:26;;;;;;;4.57;3.17;;;18.70;94.40;;;;;;5074081;28;20059;-69
2021/08/19 10:19:53;;;;;;;6.00;3.50;;;18.60;94.30;;;;;;5074614;28;20048;-70
2021/08/19 10:22:22;;;;;;;4.13;2.40;;;18.60;94.40;;;;;;5073408;28;20132;-69
2021/08/19 10:24:53;;;;;;;4.40;2.83;;;18.60;94.40;;;;;;5073956;28;20020;-71
2021/08/19 10:27:26;;;;;;;4.28;3.17;;;18.60;94.30;;;;;;5073319;28;20059;-71
2021/08/19 10:29:59;;;;;;;4.47;3.08;;;18.60;94.30;;;;;;5072643;28;20480;-71
2021/08/19 10:32:31;;;;;;;4.32;2.95;;;18.50;94.30;;;;;;5073903;28;20048;-71
2021/08/19 10:35:03;;;;;;;4.88;2.88;;;18.50;94.30;;;;;;5072449;28;20533;-70
2021/08/19 10:37:47;;;;;;;3.65;2.50;;;18.50;94.40;;;;;;5073602;28;20067;-71
2021/08/19 10:40:21;;;;;;;4.65;3.08;;;18.40;94.40;;;;;;5073677;28;20393;-70
2021/08/19 10:43:19;;;;;;;4.30;2.60;;;18.40;94.30;;;;;;5073629;28;20032;-69
2021/08/19 10:45:44;;;;;;;3.50;2.13;;;18.40;94.40;;;;;;5073713;28;20028;-70
2021/08/19 10:48:10;;;;;;;3.85;2.58;;;18.30;94.50;;;;;;5072312;28;20021;-70
2021/08/19 10:50:42;;;;;;;6.18;3.30;;;18.30;94.80;;;;;;5073616;28;20043;-72
2021/08/19 10:53:15;;;;;;;4.53;2.90;;;18.30;94.50;;;;;;5072803;28;20094;-70
2021/08/19 10:55:52;;;;;;;5.13;3.03;;;18.30;94.50;;;;;;5073517;28;20020;-69
2021/08/19 10:58:25;;;;;;;4.28;3.03;;;18.30;94.60;;;;;;5073833;28;20489;-69
2021/08/19 11:00:52;;;;;;;5.25;3.10;;;18.40;94.60;;;;;;5073443;28;20481;-69
2021/08/19 11:03:39;;;;;;;4.82;3.40;;;18.40;94.60;;;;;;5073343;28;20119;-69
2021/08/19 11:06:10;;;;;;;5.85;3.40;;;18.50;94.60;;;;;;5072927;28;20226;-70
2021/08/19 11:08:46;;;;;;;4.75;3.10;;;18.50;94.50;;;;;;5073399;28;20025;-69
2021/08/19 11:11:23;;;;;;;4.10;2.80;;;18.50;94.40;;;;;;5073257;28;20029;-69
2021/08/19 11:13:49;;;;;;;3.80;2.50;;;18.50;94.40;;;;;;5073295;28;20048;-69
2021/08/19 11:16:15;;;;;;;4.15;2.80;;;18.50;94.40;;;;;;5073311;28;20507;-69
2021/08/19 11:18:42;;;;;;;3.42;2.40;;;18.50;94.40;;;;;;5073170;28;20023;-70
2021/08/19 11:21:10;;;;;;;4.45;2.67;;;18.50;94.40;;;;;;5071482;28;20020;-69
2021/08/19 11:23:39;;;;;;;4.65;2.63;;;18.60;94.40;;;;;;5071743;28;20094;-70
2021/08/19 11:26:10;;;;;;;3.28;2.47;;;18.60;94.30;;;;;;5073301;28;20020;-70
2021/08/19 11:28:41;;;;;;;5.53;2.63;;;18.60;94.30;;;;;;5073173;28;20028;-69
2021/08/19 11:31:25;;;;;;;3.85;2.20;;;18.60;94.30;;;;;;5072995;28;20020;-69
2021/08/19 11:33:58;;;;;;;4.07;2.90;;;18.80;94.30;;;;;;5073201;28;20021;-70
2021/08/19 11:36:24;;;;;;;5.25;2.97;;;18.90;94.20;;;;;;5072682;28;20021;-70
2021/08/19 11:39:22;;;;;;;5.28;3.70;;;18.90;94.10;;;;;;5074484;28;20036;-70
2021/08/19 11:42:04;;;;;;;4.57;3.40;;;19.00;94.10;;;;;;5076873;28;20119;-70
2021/08/19 11:44:29;;;;;;;4.45;2.67;;;19.00;94.10;;;;;;5077140;28;20111;-70
2021/08/19 11:47:00;;;;;;;4.22;2.38;;;19.10;94.20;;;;;;5096254;22;20056;-73
2021/08/19 11:49:25;;;;;;;4.55;3.00;;;19.20;94.00;;;;;;5019081;28;20037;-74
2021/08/19 11:52:05;;;;;;;4.22;2.72;;;19.20;94.00;;;;;;5037021;28;20052;-73
2021/08/19 11:54:38;;;;;;;6.22;3.85;;;19.20;94.00;;;;;;5036959;28;20482;-73
2021/08/19 11:57:04;;;;;;;4.75;3.05;;;19.30;93.90;;;;;;5036959;28;20060;-73
2021/08/19 11:59:29;;;;;;;4.00;3.03;;;19.30;93.90;;;;;;5037016;28;20429;-73
2021/08/19 12:01:55;;;;;;;5.10;3.17;;;19.30;94.00;;;;;;5036697;28;20037;-73
2021/08/19 12:04:32;;;;;;;3.88;2.80;;;19.30;94.00;;;;;;5036420;28;20021;-73
2021/08/19 12:06:58;;;;;;;4.82;2.92;;;19.30;94.00;;;;;;5036737;28;20060;-73
2021/08/19 12:09:25;;;;;;;4.18;3.03;;;19.30;94.10;;;;;;5036860;28;20028;-74
2021/08/19 12:11:52;;;;;;;5.22;3.75;;;19.30;94.00;;;;;;5035391;28;20056;-73
2021/08/19 12:14:24;;;;;;;5.07;3.50;;;19.20;93.90;;;;;;5036562;28;20418;-75
2021/08/19 12:16:51;;;;;;;6.28;3.38;;;19.20;93.90;;;;;;5036630;28;20018;-73
2021/08/19 12:19:19;;;;;;;5.05;3.15;;;19.10;94.00;;;;;;5036083;28;20014;-73
2021/08/19 12:21:53;;;;;;;4.70;2.92;;;19.10;94.10;;;;;;5036547;28;20478;-74
2021/08/19 12:24:29;;;;;;;4.75;3.00;;;19.10;94.10;;;;;;5036450;28;20034;-74
2021/08/19 12:27:04;;;;;;;4.47;3.08;;;19.20;94.00;;;;;;5036397;28;20036;-73
2021/08/19 12:29:32;;;;;;;4.22;2.70;;;19.20;93.90;;;;;;5036347;28;20041;-74
2021/08/19 12:31:58;;;;;;;5.00;3.72;;;19.10;94.00;;;;;;5036319;28;20025;-76
2021/08/19 12:34:24;;;;;;;3.03;2.50;;;19.10;93.90;;;;;;5035801;28;20021;-74
2021/08/19 12:36:50;;;;;;;4.55;3.00;;;19.00;94.10;;;;;;5036293;28;20037;-74
2021/08/19 12:39:24;;;;;;;4.57;2.90;;;19.00;94.10;;;;;;5036252;28;20022;-74
2021/08/19 12:42:05;;;;;;;3.53;2.50;;;19.00;94.10;;;;;;5036215;28;20474;-73
2021/08/19 12:44:31;;;;;;;3.70;2.53;;;19.10;94.10;;;;;;5036209;28;20509;-73
2021/08/19 12:46:57;;;;;;;4.55;2.97;;;19.00;94.30;;;;;;5035965;28;20021;-74
2021/08/19 12:49:23;;;;;;;4.00;2.60;;;19.00;94.00;;;;;;5035560;28;20030;-73